createdAt,value
2023-04-01T00:00:19.123Z,84.59
2023-04-01T00:02:48.563Z,84.01
2023-04-01T00:05:18.273Z,84.47
2023-04-01T00:07:48.394Z,84.16
2023-04-01T00:10:18.295Z,84.86
2023-04-01T00:12:48.624Z,85.53
2023-04-01T00:15:16.946Z,85.82
2023-04-01T00:17:43.572Z,84.39
2023-04-01T00:20:10.816Z,84.65
2023-04-01T00:22:37.346Z,84.83
2023-04-01T00:25:05.337Z,85.11
2023-04-01T00:27:31.809Z,85.02
2023-04-01T00:29:58.347Z,84.62
2023-04-01T00:32:25.109Z,85.79
2023-04-01T00:34:52.782Z,85.17
2023-04-01T00:37:20.113Z,84.69
2023-04-01T00:39:49.813Z,85.28
2023-04-01T00:42:17.547Z,84.59
2023-04-01T00:44:44.066Z,85.96
2023-04-01T00:47:11.117Z,85.70
2023-04-01T00:49:41.707Z,84.65
2023-04-01T00:52:11.881Z,85.08
2023-04-01T00:54:39.780Z,85.07
2023-04-01T00:57:24.732Z,84.28
2023-04-01T00:59:55.159Z,85.22
2023-04-01T01:02:22.817Z,84.88
2023-04-01T01:04:49.859Z,85.41
2023-04-01T01:07:49.418Z,84.88
2023-04-01T01:10:32.252Z,85.42
2023-04-01T01:13:37.269Z,84.51
2023-04-01T01:16:25.636Z,84.69
2023-04-01T01:19:33.526Z,85.27
2023-04-01T01:22:37.066Z,84.53
2023-04-01T01:25:22.291Z,84.88
2023-04-01T01:28:06.017Z,84.96
2023-04-01T01:30:45.349Z,85.12
2023-04-01T01:33:17.714Z,84.64
2023-04-01T01:35:49.617Z,85.38
2023-04-01T01:38:23.639Z,85.28
2023-04-01T01:40:55.449Z,84.96
2023-04-01T01:43:26.470Z,84.79
2023-04-01T01:45:56.990Z,85.42
2023-04-01T01:48:25.645Z,86.16
2023-04-01T01:50:53.970Z,86.16
2023-04-01T01:53:25.681Z,86.17
2023-04-01T01:55:55.410Z,86.82
2023-04-01T01:58:41.456Z,86.90
2023-04-01T02:01:13.819Z,85.91
2023-04-01T02:03:43.114Z,85.70
2023-04-01T02:06:12.345Z,85.78
2023-04-01T02:08:44.879Z,85.68
2023-04-01T02:11:14.308Z,85.65
2023-04-01T02:13:45.444Z,85.77
2023-04-01T02:16:23.877Z,86.03
2023-04-01T02:18:57.069Z,87.00
2023-04-01T02:21:27.391Z,86.87
2023-04-01T02:23:59.733Z,87.29
2023-04-01T02:26:27.468Z,87.23
2023-04-01T02:28:57.876Z,87.58
2023-04-01T02:31:26.078Z,89.33
2023-04-01T02:33:57.230Z,90.64
2023-04-01T02:36:26.855Z,92.69
2023-04-01T02:38:56.830Z,93.67
2023-04-01T02:41:27.179Z,94.02
2023-04-01T02:43:56.019Z,94.60
2023-04-01T02:46:24.909Z,95.43
2023-04-01T02:48:51.393Z,95.11
2023-04-01T02:51:18.584Z,95.75
2023-04-01T02:53:45.292Z,96.46
2023-04-01T02:56:11.765Z,95.79
2023-04-01T02:58:38.198Z,96.44
2023-04-01T03:01:04.810Z,95.73
2023-04-01T03:03:31.287Z,94.86
2023-04-01T03:05:59.578Z,95.23
2023-04-01T03:08:26.698Z,96.23
2023-04-01T03:10:53.138Z,95.20
2023-04-01T03:13:19.624Z,95.45
2023-04-01T03:15:46.114Z,95.79
2023-04-01T03:18:12.640Z,97.28
2023-04-01T03:20:39.131Z,96.61
2023-04-01T03:23:05.831Z,96.47
2023-04-01T03:25:32.564Z,96.22
2023-04-01T03:28:00.640Z,97.49
2023-04-01T03:30:32.209Z,96.74
2023-04-01T03:33:00.496Z,97.09
2023-04-01T03:35:28.350Z,95.98
2023-04-01T03:37:58.083Z,95.74
2023-04-01T03:40:29.492Z,95.92
2023-04-01T03:42:58.153Z,96.14
2023-04-01T03:45:24.592Z,95.48
2023-04-01T03:47:51.284Z,94.47
2023-04-01T03:50:17.825Z,95.89
2023-04-01T03:52:44.300Z,95.22
2023-04-01T03:55:10.733Z,95.71
2023-04-01T03:57:37.311Z,95.55
2023-04-01T04:00:04.233Z,95.32
2023-04-01T04:02:30.909Z,95.44
2023-04-01T04:05:00.564Z,94.94
2023-04-01T04:07:30.135Z,95.51
2023-04-01T04:09:58.962Z,95.43
2023-04-01T04:12:25.460Z,95.31
2023-04-01T04:14:51.941Z,96.40
2023-04-01T04:17:18.439Z,96.58
2023-04-01T04:19:45.026Z,95.79
2023-04-01T04:22:11.460Z,97.60
2023-04-01T04:24:38.140Z,97.80
2023-04-01T04:27:04.806Z,98.32
2023-04-01T04:29:31.281Z,97.88
2023-04-01T04:32:00.334Z,97.55
2023-04-01T04:34:27.107Z,97.55
2023-04-01T04:36:53.855Z,98.11
2023-04-01T04:39:20.421Z,98.55
2023-04-01T04:41:46.890Z,98.29
2023-04-01T04:44:13.364Z,99.05
2023-04-01T04:46:40.552Z,99.31
2023-04-01T04:49:07.600Z,100.00
2023-04-01T04:51:36.654Z,100.00
2023-04-01T04:54:04.698Z,98.50
2023-04-01T04:56:32.460Z,97.88
2023-04-01T04:59:02.187Z,98.25
2023-04-01T05:01:29.991Z,99.10
2023-04-01T05:03:56.536Z,100.00
2023-04-01T05:06:23.661Z,100.00
2023-04-01T05:08:50.427Z,99.30
2023-04-01T05:11:19.680Z,100.00
2023-04-01T05:13:46.313Z,100.00
2023-04-01T05:16:16.351Z,100.00
2023-04-01T05:18:43.226Z,100.00
2023-04-01T05:21:11.500Z,100.00
2023-04-01T05:23:38.262Z,100.00
2023-04-01T05:26:10.836Z,100.00
2023-04-01T05:28:37.427Z,100.00
2023-04-01T05:31:05.258Z,100.00
2023-04-01T05:33:32.087Z,100.00
2023-04-01T05:36:09.310Z,100.00
2023-04-01T05:38:35.874Z,100.00
2023-04-01T05:41:04.028Z,100.00
2023-04-01T05:43:36.280Z,100.00
2023-04-01T05:46:02.754Z,100.00
2023-04-01T05:48:33.676Z,100.00
2023-04-01T05:51:03.729Z,100.00
2023-04-01T05:53:34.340Z,100.00
2023-04-01T05:56:04.968Z,100.00
2023-04-01T05:58:31.800Z,100.00
2023-04-01T06:01:10.110Z,100.00
2023-04-01T06:03:39.531Z,100.00
2023-04-01T06:06:12.597Z,100.00
2023-04-01T06:08:39.044Z,100.00
2023-04-01T06:11:11.225Z,100.00
2023-04-01T06:14:15.298Z,100.00
2023-04-01T06:16:47.757Z,100.00
2023-04-01T06:19:55.610Z,100.00
2023-04-01T06:22:30.351Z,100.00
2023-04-01T06:25:11.886Z,100.00
2023-04-01T06:27:44.614Z,100.00
2023-04-01T06:30:35.998Z,100.00
2023-04-01T06:33:13.973Z,100.00
2023-04-01T06:36:05.103Z,100.00
2023-04-01T06:38:45.951Z,100.00
2023-04-01T06:41:38.993Z,100.00
2023-04-01T06:44:35.763Z,100.00
2023-04-01T06:47:26.619Z,100.00
2023-04-01T06:50:13.367Z,100.00
2023-04-01T06:52:48.091Z,98.98
2023-04-01T06:55:44.078Z,97.87
2023-04-01T06:58:36.863Z,99.19
2023-04-01T07:01:07.238Z,97.70
2023-04-01T07:03:40.065Z,97.72
2023-04-01T07:06:32.955Z,99.48
2023-04-01T07:09:06.313Z,97.18
2023-04-01T07:11:36.265Z,96.97
2023-04-01T07:14:13.088Z,95.57
2023-04-01T07:16:50.149Z,92.31
2023-04-01T07:19:35.612Z,92.42
2023-04-01T07:22:42.034Z,91.58
2023-04-01T07:25:18.640Z,92.01
2023-04-01T07:27:47.011Z,90.74
2023-04-01T07:30:18.281Z,93.01
2023-04-01T07:33:16.533Z,89.41
2023-04-01T07:36:11.100Z,90.58
2023-04-01T07:38:56.947Z,88.53
2023-04-01T07:41:49.975Z,89.92
2023-04-01T07:45:02.302Z,91.48
2023-04-01T07:48:03.129Z,89.81
2023-04-01T07:50:47.063Z,91.39
2023-04-01T07:53:20.418Z,88.63
2023-04-01T07:56:11.481Z,86.49
2023-04-01T07:59:10.647Z,87.34
2023-04-01T08:02:17.648Z,85.64
2023-04-01T08:04:57.540Z,87.32
2023-04-01T08:07:30.105Z,87.79
2023-04-01T08:10:12.344Z,85.11
2023-04-01T08:12:41.740Z,81.46
2023-04-01T08:15:14.243Z,82.43
2023-04-01T08:18:23.861Z,77.32
2023-04-01T08:21:04.023Z,74.08
2023-04-01T08:23:49.390Z,74.01
2023-04-01T08:26:33.012Z,74.30
2023-04-01T08:29:12.788Z,74.64
2023-04-01T08:32:19.194Z,76.29
2023-04-01T08:34:51.033Z,79.24
2023-04-01T08:37:26.028Z,83.38
2023-04-01T08:40:00.147Z,82.48
2023-04-01T08:42:46.990Z,82.70
2023-04-01T08:45:45.657Z,84.41
2023-04-01T08:48:34.095Z,84.86
2023-04-01T08:51:25.565Z,84.66
2023-04-01T08:54:01.664Z,81.53
2023-04-01T08:56:39.050Z,83.46
2023-04-01T08:59:35.452Z,82.82
2023-04-01T09:02:23.100Z,80.66
2023-04-01T09:05:23.734Z,78.82
2023-04-01T09:08:01.363Z,79.70
2023-04-01T09:10:44.547Z,77.39
2023-04-01T09:13:40.511Z,70.96
2023-04-01T09:16:19.100Z,72.33
2023-04-01T09:19:08.965Z,68.71
2023-04-01T09:21:54.521Z,67.26
2023-04-01T09:24:47.667Z,66.58
2023-04-01T09:27:33.004Z,68.37
2023-04-01T09:30:08.490Z,69.11
2023-04-01T09:32:56.050Z,69.00
2023-04-01T09:35:41.956Z,68.39
2023-04-01T09:38:31.652Z,66.91
2023-04-01T09:41:27.805Z,63.26
2023-04-01T09:44:12.964Z,60.81
2023-04-01T09:46:48.244Z,61.04
2023-04-01T09:49:41.285Z,61.06
2023-04-01T09:52:36.796Z,66.02
2023-04-01T09:55:39.606Z,66.43
2023-04-01T09:58:43.811Z,65.01
2023-04-01T10:01:16.278Z,61.24
2023-04-01T10:04:12.088Z,63.88
2023-04-01T10:07:18.041Z,63.57
2023-04-01T10:10:25.915Z,61.57
2023-04-01T10:13:01.642Z,63.32
2023-04-01T10:15:49.556Z,60.81
2023-04-01T10:18:37.294Z,62.22
2023-04-01T10:21:03.710Z,59.06
2023-04-01T10:24:07.178Z,64.27
2023-04-01T10:26:51.135Z,67.17
2023-04-01T10:29:26.777Z,64.19
2023-04-01T10:32:12.030Z,66.34
2023-04-01T10:34:57.031Z,62.08
2023-04-01T10:37:53.949Z,62.80
2023-04-01T10:40:57.232Z,58.42
2023-04-01T10:44:01.385Z,59.26
2023-04-01T10:46:41.304Z,59.82
2023-04-01T10:49:10.789Z,65.08
2023-04-01T10:51:56.033Z,66.21
2023-04-01T10:54:42.308Z,64.18
2023-04-01T10:57:45.872Z,63.01
2023-04-01T11:00:57.283Z,62.28
2023-04-01T11:03:55.111Z,63.05
2023-04-01T11:06:38.277Z,64.42
2023-04-01T11:09:16.750Z,61.98
2023-04-01T11:12:36.478Z,64.16
2023-04-01T11:15:12.677Z,61.16
2023-04-01T11:17:51.098Z,60.99
2023-04-01T11:20:33.703Z,62.41
2023-04-01T11:23:38.334Z,60.84
2023-04-01T11:26:17.025Z,62.02
2023-04-01T11:29:02.981Z,62.21
2023-04-01T11:31:47.373Z,65.25
2023-04-01T11:34:16.650Z,65.80
2023-04-01T11:37:06.282Z,75.39
2023-04-01T11:42:32.831Z,100.00
2023-04-01T11:45:14.390Z,100.00
2023-04-01T11:47:50.574Z,100.00
2023-04-01T11:50:19.848Z,100.00
2023-04-01T11:53:03.058Z,100.00
2023-04-01T11:56:08.917Z,100.00
2023-04-01T11:58:41.104Z,99.32
2023-04-01T12:01:20.919Z,94.39
2023-04-01T12:04:10.117Z,96.37
2023-04-01T12:06:58.495Z,92.72
2023-04-01T12:09:49.893Z,89.98
2023-04-01T12:12:40.108Z,92.39
2023-04-01T12:15:30.319Z,94.80
2023-04-01T12:18:19.868Z,89.99
2023-04-01T12:21:01.460Z,86.95
2023-04-01T12:23:43.612Z,86.47
2023-04-01T12:27:01.281Z,90.18
2023-04-01T12:30:11.480Z,81.05
2023-04-01T12:33:02.943Z,83.99
2023-04-01T12:35:38.567Z,82.19
2023-04-01T12:38:46.854Z,86.38
2023-04-01T12:41:25.611Z,87.56
2023-04-01T12:44:23.387Z,87.22
2023-04-01T12:46:58.683Z,84.33
2023-04-01T12:49:43.797Z,80.32
2023-04-01T12:52:12.916Z,79.44
2023-04-01T12:54:51.523Z,78.24
2023-04-01T12:57:26.662Z,70.84
2023-04-01T13:00:16.811Z,71.40
2023-04-01T13:03:07.887Z,72.26
2023-04-01T13:05:56.863Z,73.21
2023-04-01T13:08:54.401Z,74.60
2023-04-01T13:11:27.020Z,76.11
2023-04-01T13:14:31.795Z,72.16
2023-04-01T13:17:13.707Z,71.11
2023-04-01T13:20:06.114Z,69.83
2023-04-01T13:22:38.906Z,68.38
2023-04-01T13:25:20.636Z,70.54
2023-04-01T13:27:52.414Z,70.27
2023-04-01T13:30:24.837Z,67.09
2023-04-01T13:33:03.191Z,67.17
2023-04-01T13:35:43.712Z,67.96
2023-04-01T13:38:47.765Z,66.79
2023-04-01T13:41:27.259Z,67.40
2023-04-01T13:44:05.864Z,69.16
2023-04-01T13:46:54.275Z,66.43
2023-04-01T13:49:42.555Z,66.10
2023-04-01T13:52:16.286Z,65.92
2023-04-01T13:55:07.480Z,64.31
2023-04-01T13:58:07.104Z,66.27
2023-04-01T14:00:59.736Z,66.20
2023-04-01T14:03:35.488Z,69.49
2023-04-01T14:06:13.962Z,73.24
2023-04-01T14:08:51.110Z,73.77
2023-04-01T14:11:38.152Z,73.08
2023-04-01T14:14:44.654Z,85.33
2023-04-01T14:17:32.655Z,96.59
2023-04-01T14:20:23.971Z,100.00
2023-04-01T14:22:59.281Z,100.00
2023-04-01T14:26:05.530Z,100.00
2023-04-01T14:28:58.561Z,100.00
2023-04-01T14:34:15.819Z,100.00
2023-04-01T14:37:06.427Z,100.00
2023-04-01T14:40:07.327Z,100.00
2023-04-01T14:42:52.786Z,100.00
2023-04-01T14:45:56.577Z,100.00
2023-04-01T14:48:35.309Z,100.00
2023-04-01T14:51:35.398Z,100.00
2023-04-01T14:54:26.568Z,100.00
2023-04-01T14:57:13.859Z,100.00
2023-04-01T14:59:46.903Z,100.00
2023-04-01T15:02:44.382Z,100.00
2023-04-01T15:05:35.146Z,100.00
2023-04-01T15:08:15.562Z,95.82
2023-04-01T15:10:42.046Z,94.60
2023-04-01T15:13:24.909Z,95.01
2023-04-01T15:16:28.696Z,93.72
2023-04-01T15:19:20.975Z,94.17
2023-04-01T15:22:08.011Z,95.21
2023-04-01T15:24:40.620Z,92.73
2023-04-01T15:27:23.503Z,95.33
2023-04-01T15:30:05.564Z,93.73
2023-04-01T15:32:54.864Z,93.59
2023-04-01T15:35:52.415Z,94.32
2023-04-01T15:38:37.047Z,88.42
2023-04-01T15:41:18.048Z,89.22
2023-04-01T15:43:46.373Z,88.77
2023-04-01T15:46:28.685Z,87.53
2023-04-01T15:49:12.373Z,87.86
2023-04-01T15:52:01.776Z,87.02
2023-04-01T15:54:47.025Z,89.60
2023-04-01T15:57:25.636Z,87.98
2023-04-01T15:59:55.606Z,88.50
2023-04-01T16:02:37.919Z,88.63
2023-04-01T16:05:35.914Z,88.33
2023-04-01T16:08:17.144Z,89.29
2023-04-01T16:10:59.813Z,87.86
2023-04-01T16:13:49.947Z,91.36
2023-04-01T16:16:29.979Z,92.73
2023-04-01T16:19:25.056Z,100.00
2023-04-01T16:22:02.615Z,100.00
2023-04-01T16:24:52.362Z,100.00
2023-04-01T16:27:28.270Z,100.00
2023-04-01T16:30:05.491Z,100.00
2023-04-01T16:32:52.132Z,100.00
2023-04-01T16:35:24.711Z,100.00
2023-04-01T16:37:56.938Z,100.00
2023-04-01T16:40:41.972Z,100.00
2023-04-01T16:43:11.446Z,100.00
2023-04-01T16:45:45.361Z,100.00
2023-04-01T16:48:18.419Z,100.00
2023-04-01T16:50:53.273Z,100.00
2023-04-01T16:53:48.208Z,100.00
2023-04-01T16:56:21.692Z,99.96
2023-04-01T16:58:56.957Z,98.98
2023-04-01T17:01:30.215Z,100.00
2023-04-01T17:04:09.048Z,100.00
2023-04-01T17:06:36.048Z,100.00
2023-04-01T17:09:40.481Z,100.00
2023-04-01T17:12:25.317Z,100.00
2023-04-01T17:15:11.277Z,100.00
2023-04-01T17:18:00.657Z,99.20
2023-04-01T17:20:30.005Z,97.16
2023-04-01T17:23:02.814Z,97.76
2023-04-01T17:26:06.753Z,97.34
2023-04-01T17:28:47.033Z,96.77
2023-04-01T17:31:42.728Z,96.57
2023-04-01T17:34:27.419Z,97.29
2023-04-01T17:37:10.461Z,94.66
2023-04-01T17:40:09.863Z,94.69
2023-04-01T17:42:40.524Z,96.49
2023-04-01T17:45:13.201Z,98.09
2023-04-01T17:47:42.973Z,97.49
2023-04-01T17:50:21.818Z,95.60
2023-04-01T17:52:59.650Z,96.76
2023-04-01T17:55:47.321Z,95.86
2023-04-01T17:58:22.785Z,97.27
2023-04-01T18:00:59.619Z,97.61
2023-04-01T18:03:48.382Z,98.57
2023-04-01T18:06:20.975Z,98.06
2023-04-01T18:09:01.692Z,96.43
2023-04-01T18:11:40.955Z,99.83
2023-04-01T18:14:28.197Z,99.82
2023-04-01T18:17:12.081Z,100.00
2023-04-01T18:20:10.203Z,100.00
2023-04-01T18:23:00.735Z,100.00
2023-04-01T18:25:36.143Z,100.00
2023-04-01T18:28:39.356Z,100.00
2023-04-01T18:31:27.021Z,100.00
2023-04-01T18:34:00.907Z,100.00
2023-04-01T18:36:45.435Z,100.00
2023-04-01T18:39:29.783Z,100.00
2023-04-01T18:42:09.471Z,100.00
2023-04-01T18:44:55.198Z,100.00
2023-04-01T18:47:24.597Z,100.00
2023-04-01T18:50:19.581Z,100.00
2023-04-01T18:52:46.678Z,100.00
2023-04-01T18:55:31.521Z,100.00
2023-04-01T18:58:21.516Z,100.00
2023-04-01T19:01:09.034Z,100.00
2023-04-01T19:04:01.406Z,100.00
2023-04-01T19:06:43.629Z,100.00
2023-04-01T19:09:21.064Z,100.00
2023-04-01T19:12:48.542Z,100.00
2023-04-01T19:15:40.091Z,100.00
2023-04-01T19:18:43.876Z,100.00
2023-04-01T19:21:19.398Z,100.00
2023-04-01T19:24:23.091Z,100.00
2023-04-01T19:27:17.191Z,100.00
2023-04-01T19:30:28.254Z,100.00
2023-04-01T19:33:28.520Z,100.00
2023-04-01T19:36:22.384Z,100.00
2023-04-01T19:39:23.986Z,100.00
2023-04-01T19:42:12.274Z,100.00
2023-04-01T19:45:22.410Z,100.00
2023-04-01T19:48:11.041Z,100.00
2023-04-01T19:50:57.450Z,100.00
2023-04-01T19:53:39.198Z,100.00
2023-04-01T19:56:24.747Z,100.00
2023-04-01T19:59:29.712Z,100.00
2023-04-01T20:02:30.895Z,100.00
2023-04-01T20:05:00.944Z,100.00
2023-04-01T20:07:45.271Z,100.00
2023-04-01T20:10:57.685Z,100.00
2023-04-01T20:13:39.855Z,100.00
2023-04-01T20:16:11.749Z,100.00
2023-04-01T20:18:59.245Z,100.00
2023-04-01T20:21:36.254Z,100.00
2023-04-01T20:24:08.452Z,100.00
2023-04-01T20:26:39.126Z,100.00
2023-04-01T20:29:25.928Z,100.00
2023-04-01T20:32:25.828Z,100.00
2023-04-01T20:35:29.988Z,100.00
2023-04-01T20:38:26.193Z,100.00
2023-04-01T20:41:12.396Z,100.00
2023-04-01T20:43:45.803Z,100.00
2023-04-01T20:46:45.305Z,100.00
2023-04-01T20:49:38.174Z,100.00
2023-04-01T20:52:15.892Z,100.00
2023-04-01T20:54:54.581Z,100.00
2023-04-01T20:57:39.512Z,100.00
2023-04-01T21:00:38.692Z,100.00
2023-04-01T21:03:14.328Z,100.00
2023-04-01T21:06:11.103Z,100.00
2023-04-01T21:08:44.761Z,100.00
2023-04-01T21:11:41.825Z,100.00
2023-04-01T21:15:02.568Z,100.00
2023-04-01T21:17:34.782Z,100.00
2023-04-01T21:20:23.268Z,100.00
2023-04-01T21:23:02.030Z,100.00
2023-04-01T21:25:33.820Z,100.00
2023-04-01T21:28:07.552Z,100.00
2023-04-01T21:31:16.545Z,100.00
2023-04-01T21:33:58.321Z,100.00
2023-04-01T21:36:47.469Z,100.00
2023-04-01T21:39:43.896Z,100.00
2023-04-01T21:42:19.759Z,100.00
2023-04-01T21:45:17.882Z,100.00
2023-04-01T21:48:03.118Z,100.00
2023-04-01T21:50:32.761Z,100.00
2023-04-01T21:53:36.975Z,100.00
2023-04-01T21:56:30.127Z,100.00
2023-04-01T21:59:24.859Z,100.00
2023-04-01T22:02:12.493Z,100.00
2023-04-01T22:05:03.962Z,100.00
2023-04-01T22:07:41.330Z,100.00
2023-04-01T22:10:27.487Z,100.00
2023-04-01T22:13:00.414Z,100.00
2023-04-01T22:16:04.403Z,100.00
2023-04-01T22:18:39.000Z,100.00
2023-04-01T22:22:02.531Z,100.00
2023-04-01T22:24:44.339Z,100.00
2023-04-01T22:27:31.312Z,100.00
2023-04-01T22:30:08.768Z,100.00
2023-04-01T22:32:55.985Z,100.00
2023-04-01T22:35:22.578Z,100.00
2023-04-01T22:38:01.604Z,100.00
2023-04-01T22:41:12.145Z,100.00
2023-04-01T22:43:43.052Z,100.00
2023-04-01T22:46:28.793Z,100.00
2023-04-01T22:49:17.519Z,100.00
2023-04-01T22:51:50.532Z,100.00
2023-04-01T22:54:32.321Z,100.00
2023-04-01T22:57:06.026Z,100.00
2023-04-01T22:59:40.345Z,100.00
2023-04-01T23:02:45.306Z,100.00
2023-04-01T23:05:17.752Z,100.00
2023-04-01T23:08:01.482Z,100.00
2023-04-01T23:10:44.398Z,100.00
2023-04-01T23:13:19.066Z,100.00
2023-04-01T23:15:46.460Z,100.00
2023-04-01T23:18:37.567Z,100.00
2023-04-01T23:21:22.529Z,100.00
2023-04-01T23:24:14.728Z,100.00
2023-04-01T23:26:59.059Z,100.00
2023-04-01T23:29:26.968Z,100.00
2023-04-01T23:32:01.656Z,100.00
2023-04-01T23:34:37.451Z,100.00
2023-04-01T23:37:09.526Z,100.00
2023-04-01T23:39:41.758Z,100.00
2023-04-01T23:42:16.658Z,100.00
2023-04-01T23:44:46.577Z,100.00
2023-04-01T23:47:34.919Z,100.00
2023-04-01T23:50:11.839Z,100.00
2023-04-01T23:52:47.124Z,100.00
2023-04-01T23:55:27.034Z,100.00
2023-04-01T23:58:16.455Z,100.00
